Time;durP1;ratioP1;P1;durP2;ratioP2;P2;SDS_P1;SDS_P2;PMS_P1;PMS_P2;Temp;Humidity;BMP_temperature;BMP_pressure;BME280_temperature;BME280_humidity;BME280_pressure;Samples;Min_cycle;Max_cycle;Signal;HPM_P1;HPM_P2
2021/08/16 00:04:34;;;;;;;40.03;18.25;;;;;;;21.13;58.82;100009.89;4902651;60;21226;-79
2021/08/16 00:09:39;;;;;;;31.25;16.85;;;;;;;20.99;59.19;100006.83;4902765;60;21401;-80
2021/08/16 00:14:45;;;;;;;30.20;12.85;;;;;;;20.78;59.63;99995.63;4903122;60;21285;-79
2021/08/16 00:19:51;;;;;;;31.95;11.43;;;;;;;20.81;60.32;99990.38;4902777;60;21198;-80
2021/08/16 00:24:57;;;;;;;14.55;7.50;;;;;;;20.89;60.43;99974.94;4902890;59;21206;-79
2021/08/16 00:30:05;;;;;;;13.65;6.55;;;;;;;20.92;60.19;99961.11;4982793;59;21208;-79
2021/08/16 00:35:11;;;;;;;9.60;5.22;;;;;;;20.93;60.27;99964.63;4923646;59;22322;-79
2021/08/16 00:40:18;;;;;;;11.55;5.22;;;;;;;21.00;60.31;99962.78;4816588;61;21249;-79
2021/08/16 00:45:25;;;;;;;11.18;5.50;;;;;;;21.04;60.29;99964.05;4902539;60;21208;-79
2021/08/16 00:50:31;;;;;;;7.83;5.03;;;;;;;21.04;60.50;99953.30;4816457;61;21203;-79
2021/08/16 00:55:37;;;;;;;14.30;6.35;;;;;;;21.06;60.37;99949.89;4902621;60;22169;-79
2021/08/16 01:00:43;;;;;;;21.77;6.22;;;;;;;21.01;60.30;99953.69;4816519;61;21227;-79
2021/08/16 01:05:48;;;;;;;11.57;6.37;;;;;;;20.99;60.33;99945.82;4902597;60;21587;-79
2021/08/16 01:10:55;;;;;;;15.78;7.25;;;;;;;20.84;60.08;99948.33;4816365;61;21203;-79
2021/08/16 01:16:08;;;;;;;13.48;7.08;;;;;;;20.76;60.52;99948.00;4902540;60;21181;-81
2021/08/16 01:21:17;;;;;;;12.80;6.58;;;;;;;20.69;60.57;99941.23;4816544;61;21195;-79
2021/08/16 01:26:23;;;;;;;12.30;7.28;;;;;;;20.64;60.82;99947.70;4912667;59;21213;-79
2021/08/16 01:31:29;;;;;;;13.75;6.15;;;;;;;20.64;60.95;99950.39;4972208;59;21193;-79
2021/08/16 01:36:35;;;;;;;13.10;6.33;;;;;;;20.65;61.14;99938.61;4972223;59;21196;-80
2021/08/16 01:41:40;;;;;;;11.57;5.10;;;;;;;20.64;61.02;99930.75;4972202;59;21180;-79
2021/08/16 01:46:47;;;;;;;11.33;5.20;;;;;;;20.61;61.03;99918.56;4972382;59;21232;-78
2021/08/16 01:51:53;;;;;;;11.57;6.17;;;;;;;20.62;61.05;99906.77;4972216;59;22051;-79
2021/08/16 01:56:58;;;;;;;12.15;5.53;;;;;;;20.65;61.02;99910.91;4972204;59;21176;-79
2021/08/16 02:02:04;;;;;;;10.30;6.15;;;;;;;20.68;61.12;99910.01;4972112;59;21610;-79
2021/08/16 02:07:11;;;;;;;10.23;5.55;;;;;;;20.66;61.26;99905.34;4971312;59;21193;-79
2021/08/16 02:12:17;;;;;;;9.95;6.35;;;;;;;20.68;61.38;99899.26;4963996;59;21114;-80
2021/08/16 02:17:23;;;;;;;9.03;6.12;;;;;;;20.71;61.59;99895.34;4972008;59;21507;-80
2021/08/16 02:22:29;;;;;;;9.08;5.08;;;;;;;20.69;61.44;99887.48;4971773;59;21204;-80
2021/08/16 02:27:34;;;;;;;11.83;6.33;;;;;;;20.66;61.45;99880.33;4971482;59;21172;-80
2021/08/16 02:32:40;;;;;;;9.25;5.22;;;;;;;20.63;61.63;99874.00;4971068;59;21121;-81
2021/08/16 02:37:45;;;;;;;13.95;5.45;;;;;;;20.57;61.54;99865.41;4967850;59;21141;-80
2021/08/16 02:42:51;;;;;;;13.35;5.65;;;;;;;20.49;61.71;99867.73;4967893;59;21122;-80
2021/08/16 02:47:57;;;;;;;13.70;5.15;;;;;;;20.31;61.58;99862.05;4967812;59;21551;-79
2021/08/16 02:53:03;;;;;;;13.62;5.42;;;;;;;20.27;62.22;99849.53;4967693;59;21184;-80
2021/08/16 02:58:09;;;;;;;28.35;14.95;;;;;;;20.23;62.03;99846.08;4967833;59;22195;-79
2021/08/16 03:03:15;;;;;;;10.58;6.53;;;;;;;20.14;62.47;99839.23;4967893;59;21189;-80
2021/08/16 03:08:21;;;;;;;29.80;6.50;;;;;;;20.15;62.88;99833.66;4968183;59;21222;-80
2021/08/16 03:13:28;;;;;;;27.93;7.00;;;;;;;20.13;63.10;99830.85;4968436;59;21184;-80
2021/08/16 03:18:33;;;;;;;14.33;5.85;;;;;;;20.07;63.05;99824.92;4968396;59;21189;-80
2021/08/16 03:23:39;;;;;;;9.65;5.10;;;;;;;19.92;62.95;99821.83;4968506;59;21705;-80
2021/08/16 03:28:45;;;;;;;15.98;5.47;;;;;;;19.82;63.27;99815.16;4968196;59;21183;-80
2021/08/16 03:33:51;;;;;;;24.95;8.38;;;;;;;19.71;63.42;99803.64;4970241;59;21222;-80
2021/08/16 03:38:56;;;;;;;21.00;9.70;;;;;;;19.63;63.80;99798.72;4972551;59;21176;-80
2021/08/16 03:44:02;;;;;;;32.03;10.03;;;;;;;19.60;63.80;99799.10;4972485;59;21215;-81
2021/08/16 03:49:08;;;;;;;36.75;14.03;;;;;;;19.61;64.18;99794.56;4972405;59;21177;-79
2021/08/16 03:54:14;;;;;;;16.55;8.15;;;;;;;19.41;63.80;99788.17;4972434;59;21125;-80
2021/08/16 03:59:20;;;;;;;29.00;9.30;;;;;;;19.23;64.11;99776.60;4972424;59;21212;-79
2021/08/16 04:04:25;;;;;;;19.87;10.15;;;;;;;19.08;64.51;99778.53;4972282;59;21649;-79
2021/08/16 04:09:31;;;;;;;24.55;12.60;;;;;;;19.05;65.18;99772.20;4971631;59;21213;-80
2021/08/16 04:14:37;;;;;;;31.10;14.87;;;;;;;19.15;65.65;99770.02;4972324;59;21209;-80
2021/08/16 04:19:43;;;;;;;12.25;6.33;;;;;;;19.17;65.55;99778.19;4883642;60;21532;-80
2021/08/16 04:24:48;;;;;;;11.53;6.83;;;;;;;19.02;65.71;99781.45;4883398;60;21262;-79
2021/08/16 04:29:54;;;;;;;26.57;8.98;;;;;;;18.94;66.55;99770.33;4972330;58;21593;-81
2021/08/16 04:34:59;;;;;;;16.30;8.40;;;;;;;19.16;67.26;99779.72;4880785;60;21132;-80
2021/08/16 04:40:08;;;;;;;25.00;8.63;;;;;;;19.32;67.11;99774.09;4971655;59;21177;-80
2021/08/16 04:45:14;;;;;;;15.10;6.35;;;;;;;19.45;66.97;99781.41;4972324;59;21644;-79
2021/08/16 04:50:21;;;;;;;11.75;6.00;;;;;;;19.57;67.25;99779.87;4972148;59;21165;-83
2021/08/16 04:55:27;;;;;;;67.55;47.03;;;;;;;19.66;67.19;99784.09;4972101;59;21173;-81
2021/08/16 05:00:34;;;;;;;21.70;12.90;;;;;;;19.56;67.28;99775.03;4972045;59;21197;-79
2021/08/16 05:05:47;;;;;;;31.73;22.05;;;;;;;19.45;67.32;99774.70;4972107;59;21201;-80
2021/08/16 05:10:47;;;;;;;21.07;11.53;;;;;;;19.43;67.88;99764.67;4970933;59;22046;-79
2021/08/16 05:15:53;;;;;;;13.70;7.45;;;;;;;19.50;68.01;99760.24;4932311;59;21172;-81
2021/08/16 05:21:00;;;;;;;21.42;8.03;;;;;;;19.51;68.08;99757.87;4972033;59;21543;-80
2021/08/16 05:26:05;;;;;;;24.60;9.68;;;;;;;19.60;68.17;99756.19;4972126;59;21197;-79
2021/08/16 05:31:11;;;;;;;9.48;5.87;;;;;;;19.71;68.29;99767.42;4978810;59;21208;-80
2021/08/16 05:36:17;;;;;;;160.80;98.37;;;;;;;19.73;68.57;99774.73;4898928;59;21121;-79
2021/08/16 05:41:23;;;;;;;34.15;19.20;;;;;;;19.84;68.63;99780.92;4895611;60;21243;-81
2021/08/16 05:46:28;;;;;;;13.75;6.85;;;;;;;20.02;68.94;99782.55;4895403;60;21242;-82
2021/08/16 05:51:34;;;;;;;10.05;5.50;;;;;;;20.21;68.69;99778.32;4895630;60;21200;-80
2021/08/16 05:56:40;;;;;;;8.05;4.95;;;;;;;20.40;68.39;99773.59;4895700;60;21189;-80
2021/08/16 06:01:46;;;;;;;9.25;5.25;;;;;;;20.57;67.99;99778.93;4895543;60;21122;-81
2021/08/16 06:06:52;;;;;;;13.60;5.20;;;;;;;20.77;67.45;99781.69;4895335;60;21246;-79
2021/08/16 06:11:58;;;;;;;13.78;5.47;;;;;;;20.94;67.08;99780.25;4895464;60;21200;-80
2021/08/16 06:17:05;;;;;;;9.03;5.12;;;;;;;21.12;66.63;99778.83;4895456;60;21720;-79
2021/08/16 06:22:11;;;;;;;8.33;4.90;;;;;;;21.30;66.30;99779.92;4895321;60;21181;-79
2021/08/16 06:27:17;;;;;;;8.65;4.83;;;;;;;21.49;66.22;99772.89;4921765;59;21201;-80
2021/08/16 06:32:22;;;;;;;15.68;4.83;;;;;;;21.70;66.14;99774.51;4983164;58;21229;-80
2021/08/16 06:37:28;;;;;;;12.28;5.17;;;;;;;21.92;65.27;99777.28;4895238;60;21130;-81
2021/08/16 06:42:34;;;;;;;10.60;5.15;;;;;;;22.15;64.78;99784.10;4984167;59;21200;-79
2021/08/16 06:47:40;;;;;;;16.73;6.05;;;;;;;22.34;64.29;99773.23;4984203;59;21220;-80
2021/08/16 06:52:46;;;;;;;7.33;4.78;;;;;;;22.54;64.04;99769.64;4984291;59;22136;-79
2021/08/16 06:57:52;;;;;;;10.80;4.90;;;;;;;22.73;62.25;99770.89;4984369;59;21177;-80
2021/08/16 07:02:59;;;;;;;16.62;4.50;;;;;;;22.90;62.26;99763.15;4984236;59;21809;-83
2021/08/16 07:08:05;;;;;;;11.55;5.28;;;;;;;23.12;61.46;99753.64;4950764;59;21209;-79
2021/08/16 07:13:11;;;;;;;11.73;5.22;;;;;;;23.37;61.15;99755.02;4906334;60;21159;-83
2021/08/16 07:18:17;;;;;;;9.63;4.42;;;;;;;23.58;60.94;99757.86;4906240;60;21201;-80
2021/08/16 07:23:25;;;;;;;10.40;4.92;;;;;;;23.85;60.20;99756.55;4906217;60;21106;-83
2021/08/16 07:28:31;;;;;;;5.55;4.80;;;;;;;24.05;59.73;99749.58;4906259;60;21181;-79
2021/08/16 07:33:37;;;;;;;10.68;3.33;;;;;;;24.28;59.15;99744.06;4939380;59;21205;-80
2021/08/16 07:38:43;;;;;;;5.40;4.03;;;;;;;24.55;58.18;99741.30;4984217;59;21165;-78
2021/08/16 07:43:49;;;;;;;10.68;4.12;;;;;;;24.85;57.08;99742.65;4984494;59;21201;-80
2021/08/16 07:48:54;;;;;;;9.48;4.00;;;;;;;25.07;54.45;99742.95;4984197;59;21118;-80
2021/08/16 07:54:00;;;;;;;6.17;3.60;;;;;;;25.15;52.48;99737.22;4984514;59;21110;-81
2021/08/16 07:59:06;;;;;;;4.67;3.20;;;;;;;25.26;51.68;99734.23;4984915;59;21205;-81
2021/08/16 08:04:12;;;;;;;25.32;4.08;;;;;;;25.40;48.78;99741.06;4984717;59;21469;-79
2021/08/16 08:09:18;;;;;;;4.22;3.30;;;;;;;25.55;49.58;99730.59;4984686;59;21810;-78
2021/08/16 08:14:23;;;;;;;4.22;3.50;;;;;;;25.79;47.57;99738.23;4984730;59;21173;-80
2021/08/16 08:19:29;;;;;;;9.50;3.05;;;;;;;25.94;45.42;99730.44;4984620;59;21173;-78
2021/08/16 08:24:35;;;;;;;3.02;2.75;;;;;;;26.01;45.10;99733.82;4984730;59;21168;-79
2021/08/16 08:29:42;;;;;;;5.25;2.17;;;;;;;26.14;44.93;99730.02;4984655;59;21218;-79
2021/08/16 08:34:47;;;;;;;3.80;2.70;;;;;;;26.32;41.28;99735.30;4984622;59;21227;-80
2021/08/16 08:39:53;;;;;;;2.52;2.00;;;;;;;26.44;42.60;99726.59;4984684;59;21703;-80
2021/08/16 08:44:59;;;;;;;2.20;2.10;;;;;;;26.60;41.67;99728.53;4984612;59;21165;-78
2021/08/16 08:50:06;;;;;;;8.00;2.70;;;;;;;26.79;41.08;99726.44;4895612;60;21220;-83
2021/08/16 08:55:14;;;;;;;2.92;2.30;;;;;;;26.92;41.31;99726.13;4984550;59;21213;-81
2021/08/16 09:00:21;;;;;;;4.62;2.52;;;;;;;27.09;40.02;99715.32;4984588;59;21172;-82
2021/08/16 09:05:27;;;;;;;3.42;2.77;;;;;;;27.23;40.89;99704.95;4984488;59;21259;-80
2021/08/16 09:10:33;;;;;;;3.90;2.47;;;;;;;27.31;40.17;99699.13;4984469;59;21114;-80
2021/08/16 09:15:39;;;;;;;8.75;2.98;;;;;;;27.42;41.31;99702.27;4984435;59;22149;-83
2021/08/16 09:20:50;;;;;;;9.50;3.42;;;;;;;27.68;41.53;99705.38;4984404;59;22203;-80
2021/08/16 09:25:58;;;;;;;7.78;2.65;;;;;;;27.75;38.82;99698.70;4984502;59;21118;-79
2021/08/16 09:31:15;;;;;;;3.90;2.70;;;;;;;27.90;39.50;99704.88;4984425;59;21177;-74
2021/08/16 09:36:24;;;;;;;3.60;2.62;;;;;;;27.99;37.31;99700.09;4891835;60;21254;-72
2021/08/16 09:41:30;;;;;;;8.65;3.10;;;;;;;28.06;37.62;99693.66;4892429;60;21169;-72
2021/08/16 09:46:37;;;;;;;3.05;2.72;;;;;;;28.23;37.23;99689.83;4894371;60;21215;-72
2021/08/16 09:51:42;;;;;;;4.20;2.52;;;;;;;28.35;36.70;99688.33;4894363;60;22148;-72
2021/08/16 09:56:48;;;;;;;9.63;2.87;;;;;;;28.45;36.62;99682.16;4894231;60;21189;-71
2021/08/16 10:01:55;;;;;;;11.18;2.90;;;;;;;28.44;36.62;99681.87;4894254;60;21624;-73
2021/08/16 10:07:01;;;;;;;4.35;2.62;;;;;;;28.67;35.97;99681.58;4894494;60;21590;-72
2021/08/16 10:12:07;;;;;;;8.80;2.43;;;;;;;28.74;35.95;99674.02;4968943;59;21173;-72
2021/08/16 10:17:13;;;;;;;14.20;3.10;;;;;;;28.79;37.26;99661.85;4971815;59;21173;-72
2021/08/16 10:22:19;;;;;;;8.70;3.50;;;;;;;28.99;36.50;99670.73;4971858;59;22100;-72
2021/08/16 10:27:32;;;;;;;5.05;3.05;;;;;;;29.04;36.75;99668.86;4971880;59;21216;-72
2021/08/16 10:32:37;;;;;;;7.95;3.00;;;;;;;29.17;37.25;99666.25;4972339;59;21106;-72
2021/08/16 10:37:45;;;;;;;3.75;2.70;;;;;;;29.27;37.13;99661.41;4984261;59;21169;-71
2021/08/16 10:42:54;;;;;;;5.12;3.05;;;;;;;29.34;36.53;99660.08;4984161;59;21521;-72
2021/08/16 10:48:08;;;;;;;8.55;3.05;;;;;;;29.28;38.07;99651.62;4984433;59;21641;-72
2021/08/16 10:53:14;;;;;;;4.28;2.87;;;;;;;29.30;36.95;99652.17;4984362;59;22158;-72
2021/08/16 10:58:20;;;;;;;5.92;3.58;;;;;;;29.31;37.29;99658.45;4984439;59;21269;-72
2021/08/16 11:03:27;;;;;;;7.47;3.12;;;;;;;29.18;37.46;99639.27;4984206;59;21163;-71
2021/08/16 11:08:33;;;;;;;8.43;2.60;;;;;;;29.18;37.61;99630.31;4984439;59;21161;-72
2021/08/16 11:13:38;;;;;;;4.60;3.00;;;;;;;28.99;38.21;99622.55;4984329;59;21115;-72
2021/08/16 11:18:49;;;;;;;15.25;3.35;;;;;;;29.04;37.69;99620.38;4984181;59;21106;-74
2021/08/16 11:24:01;;;;;;;5.65;3.42;;;;;;;29.04;37.92;99619.84;4983646;59;21162;-75
2021/08/16 11:29:08;;;;;;;4.28;3.15;;;;;;;28.95;37.91;99617.88;4984474;59;21110;-74
2021/08/16 11:34:14;;;;;;;5.37;2.40;;;;;;;28.89;37.55;99617.01;4984626;59;21102;-74
2021/08/16 11:39:31;;;;;;;8.55;2.90;;;;;;;28.80;37.38;99608.23;4985228;59;21184;-72
2021/08/16 11:44:37;;;;;;;7.20;2.58;;;;;;;28.81;37.63;99612.60;4984874;59;21169;-73
2021/08/16 11:49:43;;;;;;;4.87;2.92;;;;;;;29.03;36.88;99614.12;4984746;59;21169;-73
2021/08/16 11:54:49;;;;;;;12.40;2.65;;;;;;;29.11;36.33;99614.19;4984729;59;21173;-74
2021/08/16 11:59:58;;;;;;;7.28;2.35;;;;;;;29.09;35.96;99612.80;4948943;59;21113;-73
2021/08/16 12:05:04;;;;;;;5.72;2.60;;;;;;;28.98;35.90;99592.33;4984646;59;21189;-73
2021/08/16 12:10:19;;;;;;;3.72;2.60;;;;;;;28.86;36.35;99590.34;4980246;59;21212;-73
2021/08/16 12:15:25;;;;;;;12.45;2.42;;;;;;;28.67;36.76;99606.75;4984585;59;21118;-73
2021/08/16 12:20:48;;;;;;;11.53;2.30;;;;;;;28.50;39.29;99595.98;4984738;59;21178;-76
2021/08/16 12:25:54;;;;;;;6.00;2.80;;;;;;;28.50;39.92;99587.83;4984644;59;21110;-74
2021/08/16 12:31:00;;;;;;;11.63;2.52;;;;;;;28.34;39.81;99591.48;4984658;59;21181;-75
2021/08/16 12:36:06;;;;;;;10.63;2.65;;;;;;;28.05;40.18;99603.13;4948493;58;21184;-78
2021/08/16 12:41:12;;;;;;;5.15;2.40;;;;;;;27.69;46.54;99658.11;4984460;59;21214;-75
2021/08/16 12:46:35;;;;;;;6.28;3.75;;;;;;;26.34;55.04;99664.58;4984591;59;21488;-74
2021/08/16 12:51:41;;;;;;;9.90;3.77;;;;;;;25.04;58.86;99635.22;4984490;59;21177;-76
2021/08/16 12:56:46;;;;;;;8.38;3.77;;;;;;;24.76;60.41;99627.19;4984563;59;21168;-77
2021/08/16 13:01:57;;;;;;;13.35;3.70;;;;;;;24.95;60.19;99614.96;4984509;59;21165;-80
2021/08/16 13:07:03;;;;;;;7.75;3.15;;;;;;;25.24;59.25;99603.19;4984513;59;21170;-76
2021/08/16 13:12:10;;;;;;;6.15;3.42;;;;;;;25.41;58.74;99589.23;4984459;59;21173;-78
2021/08/16 13:17:15;;;;;;;7.55;3.70;;;;;;;25.49;59.57;99584.81;4984412;59;21162;-74
2021/08/16 13:22:22;;;;;;;10.88;3.42;;;;;;;25.85;60.70;99588.26;4984539;59;21193;-73
2021/08/16 13:27:29;;;;;;;8.88;3.27;;;;;;;26.20;60.82;99575.39;4984419;59;21173;-74
2021/08/16 13:32:35;;;;;;;7.05;4.10;;;;;;;26.24;60.45;99570.31;4984414;59;21163;-73
2021/08/16 13:37:41;;;;;;;9.60;4.37;;;;;;;26.41;61.10;99556.80;4975516;59;21215;-73
2021/08/16 13:42:47;;;;;;;8.73;3.80;;;;;;;26.72;60.11;99550.81;4883469;60;21235;-74
2021/08/16 13:47:53;;;;;;;5.10;3.27;;;;;;;27.11;59.41;99548.95;4971978;59;21174;-74
2021/08/16 13:52:58;;;;;;;4.25;2.80;;;;;;;27.37;57.63;99537.89;4883385;60;21213;-76
2021/08/16 13:58:04;;;;;;;9.63;4.03;;;;;;;27.59;54.19;99533.31;4883312;60;21234;-76
2021/08/16 14:03:10;;;;;;;10.50;3.30;;;;;;;27.64;50.38;99535.28;4984167;58;21572;-75
2021/08/16 14:08:19;;;;;;;7.25;3.60;;;;;;;27.72;48.26;99541.61;4971760;59;21169;-76
2021/08/16 14:13:25;;;;;;;6.20;3.05;;;;;;;27.95;47.14;99545.95;4971717;59;21177;-76
2021/08/16 14:18:31;;;;;;;8.55;3.15;;;;;;;27.97;45.78;99536.44;4882717;60;21174;-75
2021/08/16 14:23:40;;;;;;;5.17;3.12;;;;;;;27.84;45.87;99555.05;4883146;60;21185;-75
2021/08/16 14:28:46;;;;;;;8.95;3.40;;;;;;;27.70;44.68;99555.98;4920306;59;21170;-75
2021/08/16 14:33:52;;;;;;;6.70;3.10;;;;;;;27.60;45.18;99557.23;4883363;60;21662;-76
2021/08/16 14:38:57;;;;;;;3.10;2.85;;;;;;;27.53;44.24;99557.38;4971732;58;21107;-75
2021/08/16 14:44:03;;;;;;;4.08;3.25;;;;;;;27.58;44.24;99556.12;4883287;60;21473;-75
2021/08/16 14:49:09;;;;;;;6.90;3.52;;;;;;;27.47;43.74;99557.58;4882673;59;21158;-75
2021/08/16 14:54:15;;;;;;;5.15;2.90;;;;;;;27.29;42.89;99558.70;4971424;59;21197;-75
2021/08/16 14:59:20;;;;;;;10.25;3.70;;;;;;;27.15;43.50;99567.75;4883015;60;21789;-75
2021/08/16 15:04:27;;;;;;;3.58;3.27;;;;;;;27.09;44.16;99581.49;4970156;59;21223;-76
2021/08/16 15:09:32;;;;;;;4.30;2.98;;;;;;;26.99;43.21;99578.11;4883184;59;21189;-76
2021/08/16 15:14:38;;;;;;;4.22;2.80;;;;;;;26.89;42.99;99591.47;5052054;58;21164;-75
2021/08/16 15:19:46;;;;;;;5.83;3.50;;;;;;;26.89;43.00;99598.25;4971157;59;21246;-75
2021/08/16 15:24:51;;;;;;;7.90;2.77;;;;;;;27.00;43.31;99589.78;4968600;59;21576;-75
2021/08/16 15:29:59;;;;;;;5.37;3.08;;;;;;;27.01;42.78;99590.89;4883090;60;21208;-76
2021/08/16 15:35:06;;;;;;;3.83;3.27;;;;;;;26.96;42.74;99592.16;4881585;61;21181;-76
2021/08/16 15:40:13;;;;;;;7.20;3.60;;;;;;;26.98;43.29;99597.34;4983525;59;21223;-74
2021/08/16 15:45:19;;;;;;;11.63;3.47;;;;;;;26.96;43.08;99598.41;4969199;59;21114;-76
2021/08/16 15:50:26;;;;;;;6.22;3.40;;;;;;;26.85;42.66;99597.95;4982857;59;21114;-76
2021/08/16 15:55:32;;;;;;;4.67;3.22;;;;;;;26.91;42.46;99589.33;4983327;59;21166;-75
2021/08/16 16:00:40;;;;;;;5.72;4.33;;;;;;;27.09;43.10;99592.34;4984346;59;21270;-76
2021/08/16 16:05:46;;;;;;;4.75;4.33;;;;;;;27.15;42.20;99588.11;4979206;59;21228;-75
2021/08/16 16:10:51;;;;;;;6.00;2.90;;;;;;;27.04;42.55;99587.66;4906447;59;21206;-76
2021/08/16 16:15:57;;;;;;;8.68;3.70;;;;;;;26.85;41.92;99593.05;4906791;60;21177;-75
2021/08/16 16:21:04;;;;;;;6.70;3.47;;;;;;;26.74;42.20;99587.98;4906677;60;21172;-79
2021/08/16 16:26:10;;;;;;;10.65;3.70;;;;;;;26.64;42.50;99582.40;4888097;59;21106;-76
2021/08/16 16:31:17;;;;;;;9.65;3.75;;;;;;;26.58;43.25;99584.77;4984388;59;21194;-78
2021/08/16 16:36:23;;;;;;;8.63;4.20;;;;;;;26.50;43.71;99585.97;4984036;58;21651;-73
2021/08/16 16:41:29;;;;;;;8.20;3.95;;;;;;;26.30;42.67;99589.67;4883520;60;22154;-74
2021/08/16 16:46:34;;;;;;;4.80;3.70;;;;;;;26.19;42.14;99586.47;4971056;59;21172;-81
2021/08/16 16:51:40;;;;;;;9.05;3.70;;;;;;;26.16;42.07;99599.97;4883604;60;21121;-82
2021/08/16 16:56:46;;;;;;;6.65;3.90;;;;;;;26.16;40.99;99582.88;4881870;60;21776;-82
2021/08/16 17:01:51;;;;;;;5.97;4.33;;;;;;;26.16;40.74;99599.97;4972580;59;21227;-82
2021/08/16 17:06:58;;;;;;;3.75;3.20;;;;;;;26.16;40.89;99597.26;4972337;59;21225;-80
2021/08/16 17:12:04;;;;;;;8.00;3.77;;;;;;;26.12;40.76;99596.13;4972127;59;21520;-79
2021/08/16 17:17:09;;;;;;;6.58;3.80;;;;;;;26.11;40.40;99603.96;4972191;59;21180;-82
2021/08/16 17:22:15;;;;;;;6.72;3.00;;;;;;;26.12;40.53;99614.27;4972218;59;21169;-81
2021/08/16 17:27:20;;;;;;;3.50;3.20;;;;;;;26.08;39.07;99617.98;4972169;59;21205;-82
2021/08/16 17:32:26;;;;;;;10.00;4.08;;;;;;;26.03;39.21;99622.48;4972187;59;21222;-80
2021/08/16 17:37:32;;;;;;;5.15;2.92;;;;;;;25.97;39.65;99627.00;4973884;59;21251;-82
2021/08/16 17:42:38;;;;;;;12.98;4.90;;;;;;;25.87;39.43;99622.70;4984698;59;21188;-84
2021/08/16 17:47:44;;;;;;;22.42;5.50;;;;;;;25.78;38.42;99638.53;4984601;59;21196;-82
2021/08/16 17:52:50;;;;;;;8.05;2.90;;;;;;;25.67;37.70;99638.53;4984511;59;21221;-82
2021/08/16 17:57:55;;;;;;;7.28;3.40;;;;;;;25.53;38.44;99645.53;4984481;59;21626;-81
2021/08/16 18:03:02;;;;;;;7.50;2.98;;;;;;;25.40;38.12;99651.73;4984645;59;21209;-79
2021/08/16 18:08:09;;;;;;;8.48;3.00;;;;;;;25.30;38.42;99661.80;4984687;59;21177;-79
2021/08/16 18:13:16;;;;;;;7.35;2.20;;;;;;;25.16;37.99;99663.09;4983970;59;21222;-82
2021/08/16 18:18:22;;;;;;;4.10;2.58;;;;;;;25.05;37.83;99673.39;4980801;59;21548;-81
2021/08/16 18:23:28;;;;;;;4.25;2.27;;;;;;;24.90;38.06;99687.34;4984564;59;21556;-84
2021/08/16 18:28:33;;;;;;;7.85;2.60;;;;;;;24.76;38.32;99683.98;4984544;59;21217;-83
2021/08/16 18:33:39;;;;;;;9.75;3.50;;;;;;;24.62;38.64;99673.08;4977800;59;21189;-84
2021/08/16 18:38:45;;;;;;;6.50;2.35;;;;;;;24.50;38.97;99683.03;4976294;59;21185;-80
2021/08/16 18:43:50;;;;;;;6.10;3.33;;;;;;;24.34;39.54;99680.45;4983969;59;21170;-81
2021/08/16 18:48:56;;;;;;;108.45;34.27;;;;;;;24.17;40.26;99694.25;4983138;59;21226;-81
2021/08/16 18:54:02;;;;;;;10.68;5.42;;;;;;;24.00;40.93;99687.81;4979891;59;22287;-83
2021/08/16 18:59:08;;;;;;;7.83;3.58;;;;;;;23.89;41.48;99686.70;4970389;59;21102;-81
2021/08/16 19:04:15;;;;;;;10.32;4.17;;;;;;;23.84;41.94;99702.75;4984456;59;21233;-79
2021/08/16 19:09:20;;;;;;;7.05;3.50;;;;;;;23.79;42.15;99704.80;4984705;59;21161;-82
2021/08/16 19:14:27;;;;;;;5.85;3.42;;;;;;;23.74;42.48;99702.45;4983871;59;21114;-78
2021/08/16 19:19:34;;;;;;;8.48;3.95;;;;;;;23.61;43.04;99711.52;4984587;59;21229;-79
2021/08/16 19:24:40;;;;;;;8.73;3.10;;;;;;;23.42;43.80;99722.78;4984463;59;21168;-82
2021/08/16 19:29:46;;;;;;;8.23;3.10;;;;;;;23.27;44.59;99720.11;4984443;59;21702;-81
2021/08/16 19:34:52;;;;;;;4.17;2.80;;;;;;;23.17;45.11;99721.14;4931893;59;22149;-84
2021/08/16 19:39:58;;;;;;;9.63;3.33;;;;;;;23.09;45.42;99716.31;4974705;59;21193;-79
2021/08/16 19:45:05;;;;;;;9.48;3.20;;;;;;;23.06;45.65;99724.04;4983485;59;21110;-78
2021/08/16 19:50:11;;;;;;;6.62;3.08;;;;;;;23.03;45.85;99720.42;4979616;59;21126;-78
2021/08/16 19:55:17;;;;;;;5.37;2.17;;;;;;;23.01;45.96;99721.16;4978609;59;21189;-78
2021/08/16 20:00:25;;;;;;;4.62;2.80;;;;;;;22.99;46.20;99720.03;4928551;59;21176;-81
2021/08/16 20:05:30;;;;;;;9.73;4.25;;;;;;;22.93;46.40;99725.45;4978288;59;22120;-80
2021/08/16 20:10:38;;;;;;;4.50;3.10;;;;;;;22.82;46.37;99735.60;4974277;59;21125;-83
2021/08/16 20:15:44;;;;;;;5.50;3.08;;;;;;;22.72;46.55;99746.84;4978247;59;21259;-80
2021/08/16 20:20:50;;;;;;;10.13;2.83;;;;;;;22.62;46.77;99761.28;4981304;59;21639;-80
2021/08/16 20:25:55;;;;;;;75.85;35.43;;;;;;;22.52;47.15;99763.63;4984198;59;21740;-83
2021/08/16 20:31:01;;;;;;;20.75;9.55;;;;;;;22.44;47.38;99780.89;4984249;59;21690;-80
2021/08/16 20:36:10;;;;;;;21.93;9.20;;;;;;;22.24;48.86;99805.72;4926262;59;21153;-79
2021/08/16 20:41:16;;;;;;;22.95;9.25;;;;;;;21.90;50.00;99819.73;4974903;59;21222;-80
2021/08/16 20:46:22;;;;;;;23.50;10.00;;;;;;;21.57;51.54;99828.34;4880010;60;21180;-78
2021/08/16 20:51:27;;;;;;;42.55;14.65;;;;;;;21.29;53.50;99842.81;4968544;59;21166;-77
2021/08/16 20:56:35;;;;;;;25.72;10.08;;;;;;;21.01;55.25;99846.14;4968251;59;21173;-77
2021/08/16 21:01:41;;;;;;;29.30;10.15;;;;;;;20.69;56.62;99845.83;4879835;60;21535;-82
2021/08/16 21:06:46;;;;;;;16.50;6.92;;;;;;;20.38;57.65;99856.73;4879910;60;21482;-78
2021/08/16 21:11:53;;;;;;;47.70;21.23;;;;;;;20.18;58.63;99853.89;4879915;60;21126;-81
2021/08/16 21:16:59;;;;;;;24.52;9.23;;;;;;;19.99;58.64;99848.73;4968383;59;21256;-78
2021/08/16 21:22:10;;;;;;;59.30;18.42;;;;;;;19.90;59.57;99858.77;4880008;60;21181;-82
2021/08/16 21:27:16;;;;;;;27.20;10.70;;;;;;;19.82;59.58;99862.13;4879748;60;21208;-82
2021/08/16 21:32:22;;;;;;;53.75;23.90;;;;;;;19.66;60.67;99857.36;4879046;60;21195;-79
2021/08/16 21:37:28;;;;;;;75.47;33.28;;;;;;;19.52;61.63;99860.95;4964172;59;21185;-80
2021/08/16 21:42:38;;;;;;;27.27;12.23;;;;;;;19.39;62.67;99870.19;4972706;58;21430;-77
2021/08/16 21:47:43;;;;;;;9.25;5.08;;;;;;;19.25;62.79;99886.63;4978747;59;21176;-79
2021/08/16 21:52:50;;;;;;;11.00;5.30;;;;;;;19.15;62.55;99896.84;4978711;59;21180;-80
2021/08/16 21:57:56;;;;;;;2.77;1.90;;;;;;;19.16;63.31;99893.14;4980785;59;21200;-79
2021/08/16 22:03:02;;;;;;;2.50;2.30;;;;;;;19.08;63.14;99891.09;4983879;59;22127;-77
2021/08/16 22:08:07;;;;;;;3.30;2.98;;;;;;;18.98;63.66;99891.38;4983862;59;21265;-78
2021/08/16 22:13:13;;;;;;;6.47;3.92;;;;;;;19.00;63.74;99896.55;4983955;59;21208;-78
2021/08/16 22:18:18;;;;;;;2.87;2.15;;;;;;;18.88;64.27;99898.89;4983983;59;21192;-81
2021/08/16 22:23:24;;;;;;;2.62;1.70;;;;;;;18.83;64.66;99908.00;4984067;59;21156;-82
2021/08/16 22:28:31;;;;;;;2.45;2.25;;;;;;;18.82;64.01;99913.03;4983749;59;21187;-79
2021/08/16 22:33:37;;;;;;;4.75;1.90;;;;;;;18.80;63.06;99919.08;4985636;59;21518;-82
2021/08/16 22:38:42;;;;;;;3.80;2.35;;;;;;;18.63;62.29;99922.49;4987898;59;22163;-78
2021/08/16 22:43:48;;;;;;;2.33;1.85;;;;;;;18.59;61.83;99938.09;4986424;59;21182;-80
2021/08/16 22:48:53;;;;;;;7.80;2.43;;;;;;;18.55;62.53;99945.30;4985832;59;21236;-79
2021/08/16 22:53:59;;;;;;;1.67;1.57;;;;;;;18.39;61.71;99946.31;4981746;59;21173;-80
2021/08/16 22:59:05;;;;;;;2.33;1.77;;;;;;;18.18;61.77;99944.87;4980552;59;21679;-78
2021/08/16 23:04:11;;;;;;;2.67;2.00;;;;;;;18.02;61.85;99935.65;4980751;59;21161;-79
2021/08/16 23:09:16;;;;;;;3.23;2.57;;;;;;;17.84;62.66;99938.64;4980551;59;21181;-82
2021/08/16 23:14:22;;;;;;;2.47;2.00;;;;;;;17.84;62.53;99935.46;4980674;59;21690;-81
2021/08/16 23:19:28;;;;;;;3.80;2.05;;;;;;;17.93;62.82;99940.22;4980535;59;21237;-80
2021/08/16 23:24:33;;;;;;;2.47;1.93;;;;;;;17.93;62.72;99939.72;4980896;59;21201;-80
2021/08/16 23:29:39;;;;;;;3.03;2.57;;;;;;;17.99;62.62;99938.68;4981249;59;21205;-78
2021/08/16 23:34:45;;;;;;;3.17;2.70;;;;;;;18.02;62.58;99939.66;4981206;59;21648;-77
2021/08/16 23:39:51;;;;;;;4.63;2.73;;;;;;;17.92;62.52;99935.38;4892014;60;21187;-80
2021/08/16 23:44:57;;;;;;;3.60;2.70;;;;;;;17.75;62.83;99939.70;4971501;59;21181;-80
2021/08/16 23:50:03;;;;;;;5.53;1.40;;;;;;;17.59;63.47;99957.50;4968832;59;21529;-82
2021/08/16 23:55:09;;;;;;;4.17;1.83;;;;;;;17.30;64.71;99950.67;4968683;59;21704;-77
